Time;durP1;ratioP1;P1;durP2;ratioP2;P2;SDS_P1;SDS_P2;PMS_P1;PMS_P2;Temp;Humidity;BMP_temperature;BMP_pressure;BME280_temperature;BME280_humidity;BME280_pressure;Samples;Min_cycle;Max_cycle;Signal;HPM_P1;HPM_P2
2023/06/22 00:00:45;;;;;;;1.07;1.07;;;21.40;99.90;;;;;;5014078;28;20477;-80
2023/06/22 00:03:11;;;;;;;0.50;0.30;;;21.40;99.90;;;;;;5014029;28;20811;-81
2023/06/22 00:05:38;;;;;;;0.50;0.30;;;21.40;99.90;;;;;;5013885;28;20447;-82
2023/06/22 00:08:05;;;;;;;0.50;0.40;;;21.40;99.90;;;;;;5013447;28;20447;-81
2023/06/22 00:10:32;;;;;;;0.50;0.30;;;21.40;99.90;;;;;;5013848;28;20478;-82
2023/06/22 00:13:00;;;;;;;0.50;0.30;;;21.40;99.90;;;;;;5013503;28;20477;-81
2023/06/22 00:15:28;;;;;;;0.50;0.40;;;21.40;99.90;;;;;;5013773;28;20446;-81
2023/06/22 00:17:54;;;;;;;0.50;0.30;;;21.40;99.90;;;;;;5013298;28;20447;-81
2023/06/22 00:20:22;;;;;;;0.50;0.30;;;21.40;99.90;;;;;;5013982;28;20850;-81
2023/06/22 00:22:49;;;;;;;0.50;0.30;;;21.40;99.90;;;;;;5013604;28;20561;-83
2023/06/22 00:25:16;;;;;;;0.50;0.30;;;21.40;99.90;;;;;;5013227;28;20451;-81
2023/06/22 00:27:42;;;;;;;0.50;0.30;;;21.40;99.90;;;;;;5013198;28;20454;-81
2023/06/22 00:30:12;;;;;;;0.50;0.40;;;21.40;99.90;;;;;;5012604;28;20447;-82
2023/06/22 00:32:39;;;;;;;0.50;0.30;;;21.30;99.90;;;;;;5013075;28;20462;-81
2023/06/22 00:35:06;;;;;;;0.50;0.30;;;21.30;99.90;;;;;;5012857;28;20497;-82
2023/06/22 00:37:33;;;;;;;0.50;0.30;;;21.30;99.90;;;;;;5013209;28;20450;-81
2023/06/22 00:39:59;;;;;;;0.50;0.40;;;21.20;99.90;;;;;;5012909;28;20443;-79
2023/06/22 00:42:26;;;;;;;0.50;0.30;;;21.20;99.90;;;;;;5012962;28;20474;-82
2023/06/22 00:44:53;;;;;;;0.50;0.30;;;21.20;99.90;;;;;;5012958;28;20461;-81
2023/06/22 00:47:22;;;;;;;0.50;0.30;;;21.20;99.90;;;;;;5012987;28;20442;-81
2023/06/22 00:49:51;;;;;;;0.50;0.30;;;21.10;99.90;;;;;;5012862;28;20439;-82
2023/06/22 00:52:20;;;;;;;0.50;0.30;;;21.10;99.90;;;;;;5012901;28;20520;-80
2023/06/22 00:54:48;;;;;;;0.50;0.30;;;21.00;99.90;;;;;;5013149;28;20447;-81
2023/06/22 00:57:16;;;;;;;0.50;0.30;;;21.00;99.90;;;;;;5012791;28;20451;-81
2023/06/22 00:59:43;;;;;;;0.50;0.30;;;21.00;99.90;;;;;;5012651;28;20447;-82
2023/06/22 01:02:10;;;;;;;0.50;0.30;;;21.00;99.90;;;;;;5012478;28;20482;-82
2023/06/22 01:04:39;;;;;;;0.50;0.30;;;20.90;99.90;;;;;;5013030;28;20447;-81
2023/06/22 01:07:24;;;;;;;0.90;0.70;;;20.90;99.90;;;;;;5012505;28;20447;-81
2023/06/22 01:09:58;;;;;;;0.50;0.37;;;20.90;99.90;;;;;;5012753;28;20992;-84
2023/06/22 01:12:27;;;;;;;0.50;0.30;;;20.90;99.90;;;;;;5004829;28;20934;-81
2023/06/22 01:15:01;;;;;;;0.50;0.30;;;20.90;99.90;;;;;;5017243;28;20446;-81
2023/06/22 01:17:29;;;;;;;2.00;1.40;;;20.90;99.90;;;;;;5008261;28;20453;-82
2023/06/22 01:19:59;;;;;;;0.50;0.30;;;20.90;99.90;;;;;;5015792;28;20439;-83
2023/06/22 01:22:31;;;;;;;0.50;0.30;;;20.90;99.90;;;;;;5007096;28;20466;-82
2023/06/22 01:25:08;;;;;;;0.50;0.30;;;21.00;99.90;;;;;;5014867;28;20502;-82
2023/06/22 01:27:48;;;;;;;0.50;0.30;;;20.90;99.90;;;;;;5015287;28;20446;-83
2023/06/22 01:30:17;;;;;;;0.50;0.30;;;21.00;99.90;;;;;;5014879;28;20941;-82
2023/06/22 01:32:44;;;;;;;0.50;0.30;;;20.90;99.90;;;;;;5015125;28;20475;-81
2023/06/22 01:35:13;;;;;;;0.50;0.40;;;20.80;99.90;;;;;;5014327;28;20451;-83
2023/06/22 01:37:40;;;;;;;0.50;0.40;;;20.80;99.90;;;;;;5014732;28;20489;-82
2023/06/22 01:40:09;;;;;;;0.50;0.30;;;20.80;99.90;;;;;;5014956;28;20471;-83
2023/06/22 01:42:37;;;;;;;0.50;0.30;;;20.80;99.90;;;;;;5013105;28;20974;-81
2023/06/22 01:45:05;;;;;;;0.50;0.30;;;20.70;99.90;;;;;;5012886;28;20443;-81
2023/06/22 01:47:34;;;;;;;0.50;0.30;;;20.70;99.90;;;;;;5012585;28;20528;-81
2023/06/22 01:50:02;;;;;;;0.50;0.40;;;20.70;99.90;;;;;;5011743;28;20458;-81
2023/06/22 01:52:28;;;;;;;0.50;0.30;;;20.60;99.90;;;;;;5012199;28;20545;-81
2023/06/22 01:54:57;;;;;;;0.50;0.40;;;20.60;99.90;;;;;;5012290;28;20446;-82
2023/06/22 01:57:24;;;;;;;0.50;0.30;;;20.60;99.90;;;;;;5012239;28;20447;-81
2023/06/22 01:59:58;;;;;;;0.50;0.30;;;20.60;99.90;;;;;;5011982;28;20446;-81
2023/06/22 02:02:29;;;;;;;0.50;0.30;;;20.60;99.90;;;;;;5003735;28;20479;-82
2023/06/22 02:05:00;;;;;;;0.50;0.30;;;20.60;99.90;;;;;;5012367;28;20502;-82
2023/06/22 02:07:33;;;;;;;0.50;0.30;;;20.50;99.90;;;;;;5011750;28;20815;-83
2023/06/22 02:10:01;;;;;;;0.50;0.40;;;20.50;99.90;;;;;;5012211;28;20439;-81
2023/06/22 02:12:30;;;;;;;0.50;0.30;;;20.40;99.90;;;;;;5003985;28;20471;-82
2023/06/22 02:14:58;;;;;;;0.50;0.30;;;20.40;99.90;;;;;;5011797;28;20454;-81
2023/06/22 02:17:27;;;;;;;0.50;0.30;;;20.40;99.90;;;;;;5011875;28;20447;-81
2023/06/22 02:19:54;;;;;;;0.50;0.30;;;20.40;99.90;;;;;;5011904;28;20453;-79
2023/06/22 02:22:23;;;;;;;0.50;0.33;;;20.30;99.90;;;;;;5011176;28;20493;-83
2023/06/22 02:24:50;;;;;;;0.50;0.30;;;20.30;99.90;;;;;;5011627;28;20457;-81
2023/06/22 02:27:17;;;;;;;0.50;0.30;;;20.30;99.90;;;;;;5011586;28;20447;-82
2023/06/22 02:29:43;;;;;;;0.50;0.30;;;20.30;99.90;;;;;;5011509;28;20453;-82
2023/06/22 02:32:11;;;;;;;0.50;0.30;;;20.20;99.90;;;;;;5011620;28;20467;-80
2023/06/22 02:34:37;;;;;;;0.50;0.33;;;20.20;99.90;;;;;;5011642;28;20501;-81
2023/06/22 02:37:05;;;;;;;0.50;0.30;;;20.20;99.90;;;;;;5011402;28;20442;-81
2023/06/22 02:39:33;;;;;;;0.50;0.30;;;20.20;99.90;;;;;;5011618;28;20458;-81
2023/06/22 02:42:00;;;;;;;0.50;0.30;;;20.20;99.90;;;;;;5011272;28;20482;-81
2023/06/22 02:44:26;;;;;;;0.50;0.30;;;20.20;99.90;;;;;;5011678;28;20443;-81
2023/06/22 02:46:54;;;;;;;0.50;0.50;;;20.20;99.90;;;;;;5011957;28;20453;-82
2023/06/22 02:49:21;;;;;;;0.50;0.33;;;20.10;99.90;;;;;;5011285;28;20447;-81
2023/06/22 02:51:49;;;;;;;0.50;0.30;;;20.10;99.90;;;;;;5011524;28;20466;-81
2023/06/22 02:54:16;;;;;;;0.50;0.30;;;20.10;99.90;;;;;;5012485;28;20446;-81
2023/06/22 02:56:44;;;;;;;0.50;0.30;;;20.10;99.90;;;;;;5015210;28;20529;-82
2023/06/22 02:59:11;;;;;;;1.97;1.70;;;20.10;99.90;;;;;;5014976;28;20451;-82
2023/06/22 03:01:39;;;;;;;0.50;0.30;;;20.00;99.90;;;;;;5014966;28;21000;-81
2023/06/22 03:04:06;;;;;;;0.50;0.30;;;20.10;99.90;;;;;;5014714;28;20521;-81
2023/06/22 03:06:33;;;;;;;0.50;0.30;;;20.10;99.90;;;;;;5016863;28;20475;-82
2023/06/22 03:09:03;;;;;;;0.50;0.30;;;20.00;99.90;;;;;;5014821;28;20451;-81
2023/06/22 03:11:30;;;;;;;0.50;0.30;;;20.00;99.90;;;;;;5014904;28;20466;-81
2023/06/22 03:13:58;;;;;;;0.50;0.30;;;20.00;99.90;;;;;;5015401;28;20438;-81
2023/06/22 03:16:25;;;;;;;0.50;0.30;;;20.00;99.90;;;;;;5014844;28;20511;-81
2023/06/22 03:18:53;;;;;;;0.50;0.30;;;19.90;99.90;;;;;;5014724;28;20439;-81
2023/06/22 03:21:20;;;;;;;0.50;0.30;;;19.90;99.90;;;;;;5014230;28;20510;-81
2023/06/22 03:23:47;;;;;;;0.60;0.50;;;19.80;99.90;;;;;;5014649;28;20443;-81
2023/06/22 03:26:13;;;;;;;0.50;0.30;;;19.80;99.90;;;;;;5015161;28;20453;-81
2023/06/22 03:28:40;;;;;;;0.60;0.43;;;19.80;99.90;;;;;;5014740;28;20435;-81
2023/06/22 03:31:08;;;;;;;0.50;0.30;;;19.80;99.90;;;;;;5014613;28;20469;-82
2023/06/22 03:33:35;;;;;;;0.50;0.30;;;19.80;99.90;;;;;;5015408;28;20439;-82
2023/06/22 03:36:02;;;;;;;0.50;0.40;;;19.80;99.90;;;;;;5014869;28;20474;-82
2023/06/22 03:38:29;;;;;;;0.50;0.30;;;19.70;99.90;;;;;;5014808;28;20788;-82
2023/06/22 03:40:56;;;;;;;0.50;0.40;;;19.70;99.90;;;;;;5015116;28;20813;-82
2023/06/22 03:43:23;;;;;;;0.60;0.50;;;19.70;99.90;;;;;;5015561;28;20443;-79
2023/06/22 03:45:50;;;;;;;0.50;0.30;;;19.70;99.90;;;;;;5014838;28;20819;-79
2023/06/22 03:48:18;;;;;;;0.50;0.30;;;19.70;99.90;;;;;;5016061;28;20451;-82
2023/06/22 03:50:45;;;;;;;0.67;0.57;;;19.70;99.90;;;;;;5012796;28;20451;-82
2023/06/22 03:53:13;;;;;;;0.50;0.30;;;19.80;99.90;;;;;;5015587;28;20530;-83
2023/06/22 03:55:49;;;;;;;0.50;0.30;;;19.80;99.90;;;;;;5015363;28;20447;-80
2023/06/22 03:58:15;;;;;;;0.50;0.33;;;19.80;99.90;;;;;;5009202;28;20462;-83
2023/06/22 04:00:42;;;;;;;0.50;0.30;;;19.90;99.90;;;;;;5013678;28;20450;-80
2023/06/22 04:03:09;;;;;;;0.50;0.30;;;20.00;99.90;;;;;;5014530;28;20470;-82
2023/06/22 04:05:38;;;;;;;0.70;0.50;;;20.00;99.90;;;;;;5013669;28;20454;-82
2023/06/22 04:08:06;;;;;;;0.50;0.40;;;20.00;99.90;;;;;;5014729;28;20821;-82
2023/06/22 04:10:38;;;;;;;0.50;0.40;;;20.00;99.90;;;;;;5007098;28;20930;-84
2023/06/22 04:13:05;;;;;;;0.50;0.30;;;20.10;99.90;;;;;;5015065;28;20466;-81
2023/06/22 04:15:32;;;;;;;0.50;0.40;;;20.10;99.90;;;;;;5014722;28;20439;-81
2023/06/22 04:17:59;;;;;;;0.50;0.40;;;20.10;99.90;;;;;;5014897;28;20454;-84
2023/06/22 04:20:26;;;;;;;0.80;0.57;;;20.10;99.90;;;;;;5016189;28;20449;-83
2023/06/22 04:22:54;;;;;;;0.50;0.30;;;20.20;99.90;;;;;;5016264;28;20483;-82
2023/06/22 04:25:22;;;;;;;0.50;0.40;;;20.20;99.90;;;;;;5016208;28;20450;-82
2023/06/22 04:27:49;;;;;;;6.23;1.97;;;20.30;99.90;;;;;;5016199;28;20441;-83
2023/06/22 04:30:16;;;;;;;0.50;0.30;;;20.30;99.90;;;;;;5016275;28;20470;-83
2023/06/22 04:32:43;;;;;;;0.50;0.30;;;20.40;99.90;;;;;;5017893;28;21037;-83
2023/06/22 04:35:10;;;;;;;0.50;0.30;;;20.50;99.90;;;;;;5021114;28;20443;-82
2023/06/22 04:37:37;;;;;;;0.50;0.30;;;20.60;99.90;;;;;;5020938;28;20918;-82
2023/06/22 04:40:07;;;;;;;0.50;0.30;;;20.60;99.90;;;;;;5020242;28;20526;-82
2023/06/22 04:42:35;;;;;;;0.50;0.30;;;20.60;99.90;;;;;;5022318;28;20486;-83
2023/06/22 04:45:02;;;;;;;0.50;0.30;;;20.60;99.90;;;;;;5019540;28;20447;-82
2023/06/22 04:47:29;;;;;;;0.80;0.80;;;20.70;99.90;;;;;;5024472;28;20453;-81
2023/06/22 04:49:55;;;;;;;0.50;0.47;;;20.60;99.90;;;;;;5023936;28;20510;-81
2023/06/22 04:52:22;;;;;;;4.73;1.90;;;20.40;99.90;;;;;;5016577;28;20463;-81
2023/06/22 04:54:50;;;;;;;0.50;0.40;;;20.40;99.90;;;;;;5015539;28;20447;-81
2023/06/22 04:57:18;;;;;;;0.50;0.50;;;20.30;99.90;;;;;;5017134;28;20512;-82
2023/06/22 04:59:45;;;;;;;0.80;0.53;;;20.30;99.90;;;;;;5017187;28;20449;-83
2023/06/22 05:02:12;;;;;;;0.50;0.40;;;20.30;99.90;;;;;;5024102;28;20466;-85
2023/06/22 05:04:39;;;;;;;1.63;1.43;;;20.30;99.90;;;;;;5019967;28;21009;-82
2023/06/22 05:07:06;;;;;;;0.50;0.30;;;20.20;99.90;;;;;;5016170;28;20451;-81
2023/06/22 05:09:34;;;;;;;0.50;0.30;;;20.20;99.90;;;;;;5014242;28;20858;-81
2023/06/22 05:12:02;;;;;;;0.50;0.50;;;20.20;99.90;;;;;;5015966;28;20455;-82
2023/06/22 05:14:30;;;;;;;0.50;0.50;;;20.30;99.90;;;;;;5014732;28;20451;-81
2023/06/22 05:16:58;;;;;;;0.50;0.30;;;20.30;99.90;;;;;;5013866;28;20870;-82
2023/06/22 05:19:33;;;;;;;1.37;0.77;;;20.30;99.90;;;;;;5015722;28;20442;-82
2023/06/22 05:21:59;;;;;;;0.50;0.40;;;20.40;99.90;;;;;;5014095;28;20481;-82
2023/06/22 05:24:26;;;;;;;0.50;0.30;;;20.40;99.90;;;;;;5015370;28;20447;-83
2023/06/22 05:26:53;;;;;;;0.50;0.40;;;20.50;99.90;;;;;;5015172;28;20443;-82
2023/06/22 05:29:21;;;;;;;0.50;0.40;;;20.60;99.90;;;;;;5014702;28;20443;-82
2023/06/22 05:31:49;;;;;;;0.50;0.30;;;20.50;99.90;;;;;;5014578;28;20874;-82
2023/06/22 05:34:16;;;;;;;0.50;0.50;;;20.50;99.90;;;;;;5013721;28;20474;-82
2023/06/22 05:36:43;;;;;;;1.47;1.37;;;20.40;99.90;;;;;;5013502;28;20447;-82
2023/06/22 05:39:14;;;;;;;0.50;0.30;;;20.30;99.90;;;;;;5014310;28;20455;-82
2023/06/22 05:41:43;;;;;;;2.80;0.70;;;20.30;99.90;;;;;;5006685;28;20478;-82
2023/06/22 05:44:09;;;;;;;0.50;0.40;;;20.30;99.90;;;;;;5013211;28;20940;-82
2023/06/22 05:46:36;;;;;;;0.50;0.40;;;20.30;99.90;;;;;;5015169;28;20439;-83
2023/06/22 05:49:04;;;;;;;0.50;0.30;;;20.30;99.90;;;;;;5014659;28;21021;-83
2023/06/22 05:51:31;;;;;;;0.50;0.40;;;20.20;99.90;;;;;;5026142;28;20534;-84
2023/06/22 05:53:58;;;;;;;0.50;0.40;;;20.00;99.90;;;;;;5026430;28;21002;-85
2023/06/22 05:56:25;;;;;;;0.90;0.60;;;19.80;99.90;;;;;;5025478;28;20910;-84
2023/06/22 05:58:51;;;;;;;0.50;0.30;;;19.70;99.90;;;;;;5028508;28;20428;-84
2023/06/22 06:01:18;;;;;;;0.50;0.40;;;19.60;99.90;;;;;;5029099;28;20545;-85
2023/06/22 06:03:45;;;;;;;0.50;0.37;;;19.40;99.90;;;;;;5029153;28;20499;-83
2023/06/22 06:06:13;;;;;;;0.50;0.30;;;19.30;99.90;;;;;;5029442;28;20510;-84
2023/06/22 06:08:40;;;;;;;0.50;0.40;;;19.30;99.90;;;;;;5028309;28;20445;-82
2023/06/22 06:11:07;;;;;;;0.50;0.40;;;19.20;99.90;;;;;;5027907;28;20482;-83
2023/06/22 06:13:34;;;;;;;0.50;0.30;;;19.20;99.90;;;;;;5027695;28;20570;-82
2023/06/22 06:16:00;;;;;;;0.50;0.30;;;19.20;99.90;;;;;;5024937;28;21232;-81
2023/06/22 06:18:27;;;;;;;0.50;0.40;;;19.10;99.90;;;;;;5013429;28;20549;-82
2023/06/22 06:20:54;;;;;;;0.50;0.40;;;19.10;99.90;;;;;;5013519;28;20449;-82
2023/06/22 06:23:22;;;;;;;0.50;0.40;;;19.20;99.90;;;;;;5013760;28;20861;-82
2023/06/22 06:25:49;;;;;;;0.50;0.40;;;19.20;99.90;;;;;;5012746;28;20503;-82
2023/06/22 06:28:16;;;;;;;0.50;0.40;;;19.20;99.90;;;;;;5015075;28;20455;-83
2023/06/22 06:30:43;;;;;;;0.50;0.30;;;19.20;99.90;;;;;;5016398;28;20447;-84
2023/06/22 06:33:10;;;;;;;0.50;0.40;;;19.20;99.90;;;;;;5021020;28;20462;-84
2023/06/22 06:35:37;;;;;;;0.50;0.30;;;19.30;99.90;;;;;;5017387;28;20855;-82
2023/06/22 06:38:04;;;;;;;0.50;0.30;;;19.30;99.90;;;;;;5017033;28;20456;-84
2023/06/22 06:40:32;;;;;;;0.50;0.40;;;19.40;99.90;;;;;;5016164;28;20442;-82
2023/06/22 06:42:59;;;;;;;0.50;0.40;;;19.40;99.90;;;;;;5016044;28;20489;-82
2023/06/22 06:45:28;;;;;;;0.50;0.30;;;19.50;99.90;;;;;;5016578;28;20453;-83
2023/06/22 06:47:55;;;;;;;0.50;0.30;;;19.50;99.90;;;;;;5016237;28;20454;-81
2023/06/22 06:50:22;;;;;;;3.13;2.50;;;19.60;99.90;;;;;;5016495;28;20451;-82
2023/06/22 06:52:49;;;;;;;0.67;0.67;;;19.50;99.90;;;;;;5019346;28;20593;-83
2023/06/22 06:55:17;;;;;;;0.50;0.30;;;19.50;99.90;;;;;;5019012;28;20747;-83
2023/06/22 06:57:48;;;;;;;0.50;0.30;;;19.60;99.90;;;;;;5018371;28;20961;-84
2023/06/22 07:00:16;;;;;;;0.87;0.87;;;19.60;99.90;;;;;;5018101;28;20874;-83
2023/06/22 07:02:45;;;;;;;0.50;0.30;;;19.70;99.90;;;;;;5008555;28;20482;-82
2023/06/22 07:05:12;;;;;;;0.50;0.30;;;19.70;99.90;;;;;;5015638;28;20451;-82
2023/06/22 07:07:41;;;;;;;0.73;0.73;;;19.80;99.90;;;;;;5016312;28;20526;-82
2023/06/22 07:10:08;;;;;;;0.50;0.30;;;19.90;99.90;;;;;;5016292;28;20451;-82
2023/06/22 07:12:35;;;;;;;0.50;0.30;;;19.90;99.90;;;;;;5016154;28;20473;-83
2023/06/22 07:15:07;;;;;;;0.50;0.30;;;20.00;99.90;;;;;;5016706;28;20546;-84
2023/06/22 07:17:34;;;;;;;0.50;0.40;;;20.10;99.90;;;;;;5016523;28;20482;-83
2023/06/22 07:20:01;;;;;;;0.50;0.30;;;20.20;99.90;;;;;;5016317;28;20447;-83
2023/06/22 07:22:28;;;;;;;1.60;1.50;;;20.20;99.90;;;;;;5016405;28;20489;-84
2023/06/22 07:24:56;;;;;;;0.50;0.30;;;20.30;99.90;;;;;;5016776;28;20450;-82
2023/06/22 07:27:22;;;;;;;0.60;0.30;;;20.40;99.90;;;;;;5017252;28;20454;-85
2023/06/22 07:29:49;;;;;;;0.50;0.30;;;20.40;99.90;;;;;;5016778;28;20451;-83
2023/06/22 07:32:17;;;;;;;0.93;0.93;;;20.60;99.90;;;;;;5018838;28;20467;-82
2023/06/22 07:34:44;;;;;;;0.50;0.30;;;20.70;99.90;;;;;;5010438;28;20811;-81
2023/06/22 07:37:11;;;;;;;0.60;0.50;;;20.80;99.90;;;;;;5015620;28;20443;-81
2023/06/22 07:39:38;;;;;;;0.60;0.60;;;20.80;99.90;;;;;;5015126;28;20553;-82
2023/06/22 07:42:05;;;;;;;6.23;4.60;;;20.70;99.90;;;;;;5015718;28;20915;-82
2023/06/22 07:44:32;;;;;;;0.50;0.30;;;20.80;99.90;;;;;;5017009;28;20447;-83
2023/06/22 07:46:58;;;;;;;0.50;0.40;;;20.70;99.90;;;;;;5005318;28;20459;-83
2023/06/22 07:49:27;;;;;;;0.50;0.30;;;20.70;99.90;;;;;;5014848;28;20447;-83
2023/06/22 07:51:53;;;;;;;0.50;0.30;;;20.70;99.90;;;;;;5007100;28;20467;-83
2023/06/22 07:54:20;;;;;;;0.50;0.40;;;20.70;99.90;;;;;;5007459;28;20458;-83
2023/06/22 07:56:47;;;;;;;1.43;1.43;;;20.90;99.90;;;;;;5018554;28;20470;-84
2023/06/22 07:59:14;;;;;;;1.90;1.77;;;21.00;99.90;;;;;;5018896;28;20455;-85
2023/06/22 08:01:41;;;;;;;0.50;0.40;;;21.10;99.90;;;;;;5014951;28;20838;-81
2023/06/22 08:04:08;;;;;;;0.50;0.30;;;21.10;99.90;;;;;;5015740;28;20478;-83
2023/06/22 08:06:36;;;;;;;0.50;0.40;;;21.10;99.90;;;;;;5015300;28;20452;-83
2023/06/22 08:09:04;;;;;;;0.90;0.60;;;21.20;99.90;;;;;;5015251;28;20463;-82
2023/06/22 08:11:30;;;;;;;0.50;0.30;;;21.20;99.90;;;;;;5012072;28;20501;-82
2023/06/22 08:13:58;;;;;;;0.50;0.40;;;21.20;99.90;;;;;;5017604;28;20449;-82
2023/06/22 08:16:25;;;;;;;0.50;0.40;;;21.20;99.90;;;;;;5014377;28;20549;-83
2023/06/22 08:18:51;;;;;;;0.50;0.30;;;21.30;99.90;;;;;;5014442;28;20447;-83
2023/06/22 08:21:18;;;;;;;0.50;0.30;;;21.30;99.90;;;;;;5015114;28;20474;-83
2023/06/22 08:23:46;;;;;;;0.50;0.30;;;21.40;99.90;;;;;;5014145;28;20482;-82
2023/06/22 08:26:13;;;;;;;0.50;0.40;;;21.40;99.90;;;;;;5014222;28;20451;-82
2023/06/22 08:28:40;;;;;;;0.60;0.60;;;21.40;99.90;;;;;;5013618;28;20446;-81
2023/06/22 08:31:07;;;;;;;0.50;0.33;;;21.50;99.90;;;;;;5014166;28;20978;-83
2023/06/22 08:33:33;;;;;;;0.50;0.30;;;21.50;99.90;;;;;;5013669;28;20443;-82
2023/06/22 08:36:00;;;;;;;0.50;0.30;;;21.70;99.90;;;;;;5013714;28;20538;-82
2023/06/22 08:38:27;;;;;;;0.60;0.60;;;21.80;99.90;;;;;;5013012;28;20451;-82
2023/06/22 08:40:55;;;;;;;0.50;0.30;;;21.80;99.90;;;;;;5013444;28;20453;-82
2023/06/22 08:43:22;;;;;;;1.37;1.27;;;21.80;99.90;;;;;;5013334;28;20478;-82
2023/06/22 08:45:49;;;;;;;0.50;0.30;;;21.90;99.90;;;;;;5013333;28;20447;-82
2023/06/22 08:48:15;;;;;;;0.60;0.50;;;22.00;99.90;;;;;;5013321;28;20449;-82
2023/06/22 08:50:42;;;;;;;0.50;0.30;;;22.10;99.90;;;;;;5013284;28;20466;-80
2023/06/22 08:53:09;;;;;;;0.50;0.30;;;22.20;99.90;;;;;;5013077;28;20455;-83
2023/06/22 08:55:36;;;;;;;0.50;0.40;;;22.30;99.90;;;;;;5014147;28;20442;-82
2023/06/22 08:58:04;;;;;;;0.50;0.30;;;22.30;99.90;;;;;;5014137;28;20438;-81
2023/06/22 09:00:34;;;;;;;0.60;0.60;;;22.40;99.90;;;;;;5013724;28;20866;-85
2023/06/22 09:03:01;;;;;;;0.53;0.50;;;22.30;99.90;;;;;;5020707;28;20482;-83
2023/06/22 09:05:28;;;;;;;1.03;1.03;;;22.30;99.90;;;;;;5023265;28;20473;-85
2023/06/22 09:07:55;;;;;;;0.50;0.40;;;22.20;99.90;;;;;;5021762;28;20515;-81
2023/06/22 09:10:22;;;;;;;0.50;0.30;;;22.10;99.90;;;;;;5016372;28;20858;-84
2023/06/22 09:12:49;;;;;;;0.50;0.30;;;22.20;99.90;;;;;;5015052;28;20471;-82
2023/06/22 09:15:18;;;;;;;0.50;0.30;;;22.40;99.90;;;;;;5013489;28;20898;-82
2023/06/22 09:17:46;;;;;;;2.23;1.20;;;22.60;99.90;;;;;;5014145;28;20541;-83
2023/06/22 09:20:13;;;;;;;1.43;0.50;;;22.60;99.90;;;;;;5014501;28;20482;-83
2023/06/22 09:22:40;;;;;;;0.77;0.77;;;22.70;99.90;;;;;;5014130;28;20469;-82
2023/06/22 09:25:07;;;;;;;1.53;1.00;;;22.70;99.90;;;;;;5014255;28;20523;-83
2023/06/22 09:27:34;;;;;;;4.23;3.93;;;22.70;99.90;;;;;;5013496;28;20458;-80
2023/06/22 09:30:02;;;;;;;0.50;0.30;;;22.70;99.90;;;;;;5013610;28;20505;-82
2023/06/22 09:32:30;;;;;;;1.33;0.97;;;22.70;99.90;;;;;;5013531;28;20466;-82
2023/06/22 09:34:57;;;;;;;2.57;2.17;;;22.80;99.90;;;;;;5016067;28;20446;-82
2023/06/22 09:37:24;;;;;;;8.50;4.93;;;22.90;99.90;;;;;;5013259;28;20491;-82
2023/06/22 09:39:51;;;;;;;0.50;0.40;;;23.10;99.90;;;;;;5015951;28;20435;-84
2023/06/22 09:42:18;;;;;;;0.50;0.30;;;23.50;99.90;;;;;;5013955;28;20513;-83
2023/06/22 09:44:44;;;;;;;0.50;0.30;;;24.10;99.90;;;;;;5012420;28;20865;-82
2023/06/22 09:47:11;;;;;;;0.50;0.30;;;24.40;99.90;;;;;;5012193;28;20446;-82
2023/06/22 09:49:39;;;;;;;0.50;0.40;;;24.50;99.90;;;;;;5012554;28;20449;-82
2023/06/22 09:52:07;;;;;;;4.67;3.10;;;24.70;99.90;;;;;;5013102;28;20466;-83
2023/06/22 09:54:34;;;;;;;2.53;1.57;;;24.70;99.90;;;;;;5012132;28;20442;-83
2023/06/22 09:57:00;;;;;;;0.50;0.40;;;24.40;99.90;;;;;;5013050;28;20447;-82
2023/06/22 09:59:27;;;;;;;1.00;0.90;;;24.20;99.90;;;;;;5012339;28;20447;-84
2023/06/22 10:01:54;;;;;;;0.83;0.50;;;24.40;99.90;;;;;;5005136;28;20455;-83
2023/06/22 10:04:21;;;;;;;1.70;1.60;;;24.80;99.90;;;;;;5013343;28;20475;-83
2023/06/22 10:06:49;;;;;;;0.50;0.30;;;25.40;99.90;;;;;;5012509;28;20558;-82
2023/06/22 10:09:16;;;;;;;0.50;0.40;;;25.90;99.90;;;;;;5012882;28;20446;-83
2023/06/22 10:11:43;;;;;;;0.70;0.53;;;26.40;99.90;;;;;;5016231;28;20923;-83
2023/06/22 10:14:09;;;;;;;0.60;0.43;;;26.90;99.90;;;;;;5025316;28;20447;-84
2023/06/22 10:16:37;;;;;;;0.60;0.60;;;27.20;99.90;;;;;;5017803;28;20446;-83
2023/06/22 10:19:04;;;;;;;0.77;0.77;;;27.60;99.90;;;;;;5019640;28;20439;-83
2023/06/22 10:21:31;;;;;;;0.50;0.40;;;28.20;99.90;;;;;;5016565;28;20477;-83
2023/06/22 10:24:05;;;;;;;0.50;0.30;;;28.70;99.90;;;;;;5016049;28;20486;-83
2023/06/22 10:26:32;;;;;;;0.50;0.30;;;29.00;99.90;;;;;;5017716;28;20470;-83
2023/06/22 10:28:59;;;;;;;0.73;0.73;;;29.30;99.90;;;;;;5015781;28;20450;-82
2023/06/22 10:31:27;;;;;;;12.60;1.40;;;29.50;99.90;;;;;;5016113;28;20994;-82
2023/06/22 10:33:54;;;;;;;1.80;1.23;;;29.90;99.90;;;;;;5014411;28;20443;-80
2023/06/22 10:36:21;;;;;;;0.50;0.30;;;30.40;99.90;;;;;;5013445;28;20470;-82
2023/06/22 10:38:48;;;;;;;0.50;0.30;;;30.20;99.90;;;;;;5013436;28;20444;-80
2023/06/22 10:41:16;;;;;;;0.50;0.43;;;30.10;99.90;;;;;;5013233;28;20470;-84
2023/06/22 10:43:43;;;;;;;0.50;0.40;;;29.90;99.90;;;;;;5012668;28;20478;-81
2023/06/22 10:46:10;;;;;;;4.53;1.30;;;29.60;99.90;;;;;;5012635;28;20938;-81
2023/06/22 10:48:37;;;;;;;0.77;0.77;;;29.10;99.90;;;;;;5012105;28;20455;-81
2023/06/22 10:51:04;;;;;;;1.50;1.40;;;28.80;99.90;;;;;;5012379;28;20447;-80
2023/06/22 10:53:30;;;;;;;0.50;0.30;;;28.50;99.90;;;;;;5012485;28;20442;-83
2023/06/22 10:55:57;;;;;;;0.50;0.50;;;28.20;99.90;;;;;;5004378;28;20447;-80
2023/06/22 10:58:26;;;;;;;0.50;0.50;;;27.90;99.90;;;;;;5012443;28;20447;-81
2023/06/22 11:00:53;;;;;;;0.50;0.40;;;27.60;99.90;;;;;;5011924;28;20811;-82
2023/06/22 11:03:20;;;;;;;0.50;0.30;;;27.20;99.90;;;;;;5013945;28;20505;-82
2023/06/22 11:05:47;;;;;;;1.50;0.80;;;26.90;99.90;;;;;;5012936;28;20439;-81
2023/06/22 11:08:14;;;;;;;0.50;0.30;;;26.80;99.90;;;;;;5011919;28;20652;-81
2023/06/22 11:10:41;;;;;;;2.37;1.57;;;26.50;99.90;;;;;;5012314;28;20507;-81
2023/06/22 11:13:09;;;;;;;0.50;0.40;;;26.30;99.90;;;;;;5015342;28;20470;-83
2023/06/22 11:15:37;;;;;;;0.50;0.30;;;26.00;99.90;;;;;;5013789;28;20497;-81
2023/06/22 11:18:06;;;;;;;0.50;0.30;;;26.00;99.90;;;;;;5015482;28;20538;-80
2023/06/22 11:20:38;;;;;;;0.50;0.30;;;25.80;99.90;;;;;;5015091;28;20446;-79
2023/06/22 11:23:06;;;;;;;0.50;0.30;;;25.70;99.90;;;;;;5015091;28;20789;-80
2023/06/22 11:25:34;;;;;;;0.87;0.87;;;25.50;99.90;;;;;;5014797;28;20518;-78
2023/06/22 11:28:02;;;;;;;0.50;0.30;;;25.20;99.90;;;;;;5015215;28;20451;-80
2023/06/22 11:30:29;;;;;;;0.90;0.80;;;25.00;99.90;;;;;;5014320;28;20442;-80
2023/06/22 11:32:57;;;;;;;1.47;1.37;;;24.70;99.90;;;;;;5015481;28;20526;-80
2023/06/22 11:35:24;;;;;;;0.50;0.30;;;24.40;99.90;;;;;;5014158;28;20447;-80
2023/06/22 11:37:51;;;;;;;0.50;0.33;;;24.10;99.90;;;;;;5014177;28;20439;-80
2023/06/22 11:40:18;;;;;;;0.50;0.30;;;23.90;99.90;;;;;;5014553;28;20493;-80
2023/06/22 11:42:44;;;;;;;0.50;0.30;;;23.60;99.90;;;;;;5017371;28;20471;-80
2023/06/22 11:45:12;;;;;;;0.50;0.30;;;23.40;99.90;;;;;;5014277;28;21019;-81
2023/06/22 11:47:39;;;;;;;0.50;0.30;;;23.20;99.90;;;;;;5013945;28;20461;-80
2023/06/22 11:50:08;;;;;;;0.50;0.30;;;23.00;99.90;;;;;;5014243;28;20497;-81
2023/06/22 11:52:36;;;;;;;0.50;0.30;;;22.80;99.90;;;;;;5013757;28;20466;-80
2023/06/22 11:55:05;;;;;;;0.50;0.30;;;22.70;99.90;;;;;;5015419;28;20439;-81
2023/06/22 11:57:33;;;;;;;0.50;0.30;;;22.50;99.90;;;;;;5014652;28;20552;-81
2023/06/22 12:00:00;;;;;;;0.50;0.30;;;22.40;99.90;;;;;;5008332;28;20446;-78
2023/06/22 12:02:27;;;;;;;0.63;0.63;;;22.40;99.90;;;;;;5014653;28;20469;-81
2023/06/22 12:04:56;;;;;;;0.50;0.30;;;22.30;99.90;;;;;;5014293;28;20481;-78
2023/06/22 12:07:24;;;;;;;1.53;1.43;;;22.10;99.90;;;;;;5015907;28;20447;-79
2023/06/22 12:09:51;;;;;;;0.50;0.30;;;22.10;99.90;;;;;;5014252;28;20447;-82
2023/06/22 12:12:17;;;;;;;0.50;0.30;;;22.10;99.90;;;;;;5014350;28;20475;-82
2023/06/22 12:14:44;;;;;;;0.50;0.30;;;22.00;99.90;;;;;;5018668;28;20451;-83
2023/06/22 12:17:11;;;;;;;0.90;0.90;;;22.00;99.90;;;;;;5014184;28;20447;-81
2023/06/22 12:19:38;;;;;;;0.93;0.93;;;21.90;99.90;;;;;;5014645;28;20447;-81
2023/06/22 12:22:05;;;;;;;0.50;0.30;;;21.90;99.90;;;;;;5013878;28;20467;-80
2023/06/22 12:24:33;;;;;;;0.50;0.40;;;21.80;99.90;;;;;;5014656;28;20470;-81
2023/06/22 12:27:00;;;;;;;0.93;0.83;;;21.80;99.90;;;;;;5013673;28;20451;-81
2023/06/22 12:29:27;;;;;;;0.50;0.40;;;21.80;99.90;;;;;;5017531;28;20445;-81
2023/06/22 12:31:53;;;;;;;0.50;0.40;;;21.80;99.90;;;;;;5012981;28;20534;-80
2023/06/22 12:34:20;;;;;;;0.50;0.30;;;21.80;99.90;;;;;;5013776;28;20439;-81
2023/06/22 12:36:48;;;;;;;0.73;0.73;;;21.80;99.90;;;;;;5013537;28;20542;-82
2023/06/22 12:39:15;;;;;;;0.50;0.30;;;21.90;99.90;;;;;;5013613;28;20530;-82
2023/06/22 12:41:43;;;;;;;0.50;0.30;;;21.90;99.90;;;;;;5013022;28;20478;-77
2023/06/22 12:44:10;;;;;;;0.50;0.30;;;22.10;99.90;;;;;;5013865;28;20546;-82
2023/06/22 12:46:38;;;;;;;2.33;2.13;;;22.10;99.90;;;;;;5014248;28;20538;-83
2023/06/22 12:49:05;;;;;;;0.50;0.30;;;22.10;99.90;;;;;;5013464;28;21124;-82